Portada
METAR-TAF:

METAR-TAF

Aeroports :

N'Djamena, Txad

latitud: 12-08N, longitud: 015-02E, altitud: 295 m

Observació

L'informe es va fer fa 44 minuts, a les 13:00 UTC
Vent 3 kt amb direcció variable
Temperatura 42°C
Humitat 13%
Pressió 1006 hPa
Visibilitat: 8000 m

METAR: FTTJ 071300Z VRB03KT 8000 NSC 42/08 Q1006 NOSIG

Hora: 14:44 (13:44 UTC)

Pronòstic

L'informe es va fer fa 2 hores i 44 minuts, a les 11:00 UTC
Pronòstic vàlid del 07 a les 12 UTC al 08 a les 18 UTC
Vent 5 kt amb direcció variable
Visibilitat: 7000 m
Evolucionant progressivament
l' 07 a les 14 UTC al 07 a les 16 UTC
Vent 12 kt del Nord
Evolucionant progressivament
l' 07 a les 18 UTC al 07 a les 20 UTC
Visibilitat: 2500 m
Pols estès
Temporalment
l' 07 a les 22 UTC al 08 a les 08 UTC
Visibilitat: 1200 m
A partir de les 08 a les 0900 UTC
Vent 10 kt del Est/Nord-Est
Visibilitat: 6000 m

TAF: FTTJ 071100Z 0712/0818 VRB05KT 7000 NSC BECMG 0714/0716 36012KT BECMG 0718/0720 2500 DU TEMPO 0722/0808 1200 FM080900 06010KT 6000 NSC

Observacions i pronòstics meteorològics de més de 4000 aeroports (METAR i TAF).

Les estacions disponibles són els punts grocs i vermells al mapa.

Posi el ratolí al punt desitjat per veure el nom de l'estació.

Feu clic per veure les observacions i els pronòstics meteorològics.

Per canviar el mapa: feu clic els botons verds amb una creu de color negre per apropar; al botó verd amb un guió per allunyar la imatge; o en les fletxes verdes per a mapes adjacents.


METAR-TAF: